메인 페이지
METAR-TAF:

METAR-TAF

공항 :

롤랑 가로스 공항

생드니, 레위니옹

위도: 20-53S, 경도: 055-31E, 고도: 21m

현재 날씨관측

예보는 20분 전, 22:00시(UTC)에 발표되었습니다.
11kt
온도 26°C
습도 79%
기압 1010 hPa
시정 10km 이상
1500m 미만 상공 구름 및 적란운 없음

METAR: FMEE 272200Z AUTO 10011KT CAVOK 26/22 Q1010

시각: 02:20 (22:20 UTC)

예보

예보는 11 시간 20분 전, 11:00시(UTC)에 발표되었습니다.
예보 대상 시간: 27일 12시부터 28일 18시까지 (UTC)
15kt
시정 10km 이상
고도 2000ft 상공 구름 보통
고도 20000ft 상공 구름 많음
확률 40% :
일시적
27일 12시부터 27일 18시까지 (UTC)
시정: 3000m
고도 1500ft 상공 구름 많음, 적란운.
소나기
일시적
28일 06시부터 28일 18시까지 (UTC)
동남동15kt, 순간 최대 풍속 25kt

TAF: FMEE 271100Z 2712/2818 08015KT 9999 SCT020 BKN200 PROB40 TEMPO 2712/2718 3000 SHRA BKN015CB TEMPO 2806/2818 12015G25KT

4,000개 이상의 공항 관측 자료 및 예보 (METAR 및 TAF 보고).

지도상에서 검색 가능한 기상관측소가 노란 점과 빨간 점으로 표시되어 있습니다.

기상관측소 명을 보려면 표시 위로 마우스를 이동하세요.

날씨 관측과 예보를 보려면 클릭하세요.

지도 변경 : 확대하려면 엑스 표시가 있는 녹색 버튼, 축소하려면 빼기 표시가 있는 녹색 버튼, 다음 페이지의 지도를 보려면 녹색 화살표를 클릭하세요.


METAR-TAF: